Time,TemperatureF,DewpointF,PressureIn,WindDirection,WindDirectionDegrees,WindSpeedMPH,WindSpeedGustMPH,Humidity,HourlyPrecipIn,Conditions,Clouds,dailyrainin,SoftwareType,DateUTC
2013-01-31 00:00:00,44.3,40.1,29.23,SSW,208,17.0,38.0,85,0.09,,SKC,2.91,VWS V14.01,2013-01-31 05:00:00,
2013-01-31 00:01:00,44.3,40.1,29.23,SSW,208,17.0,38.0,85,0.09,,SKC,2.91,VWS V14.01,2013-01-31 05:01:00,
2013-01-31 00:04:00,44.1,40.5,29.23,SW,233,15.0,22.0,87,0.06,,SKC,0.00,VWS V14.01,2013-01-31 05:04:00,
2013-01-31 00:07:00,43.8,40.5,29.23,SSW,202,10.0,23.0,88,0.06,,SKC,0.00,VWS V14.01,2013-01-31 05:07:00,
2013-01-31 00:13:00,42.9,40.2,29.23,SSW,201,15.0,33.0,90,0.06,,SKC,0.00,VWS V14.01,2013-01-31 05:13:00,
2013-01-31 00:15:00,42.6,40.2,29.23,South,188,21.0,33.0,91,0.06,,SKC,0.00,VWS V14.01,2013-01-31 05:15:00,
2013-01-31 00:22:00,42.1,40.2,29.23,SW,236,18.0,23.0,93,0.02,,SKC,0.00,VWS V14.01,2013-01-31 05:22:00,
2013-01-31 00:28:00,41.6,40.0,29.23,SSW,209,13.0,29.0,94,0.02,,SKC,0.00,VWS V14.01,2013-01-31 05:28:00,
2013-01-31 00:30:00,41.5,40.2,29.22,WSW,238,10.0,29.0,95,0.02,,SKC,0.00,VWS V14.01,2013-01-31 05:30:00,
2013-01-31 00:34:00,41.1,39.8,29.22,SSW,205,12.0,21.0,95,0.00,,SKC,0.00,VWS V14.01,2013-01-31 05:34:00,
2013-01-31 00:40:00,40.6,39.3,29.22,SSW,210,7.0,28.0,95,0.01,,SKC,0.01,VWS V14.01,2013-01-31 05:40:00,
2013-01-31 00:45:00,40.3,39.0,29.23,SW,234,16.0,33.0,95,0.01,,SKC,0.01,VWS V14.01,2013-01-31 05:45:00,
2013-01-31 00:52:00,39.8,38.5,29.23,WSW,254,15.0,33.0,95,0.01,,SKC,0.01,VWS V14.01,2013-01-31 05:52:00,
2013-01-31 00:58:00,39.5,38.2,29.23,SSW,204,19.0,35.0,95,0.01,,SKC,0.01,VWS V14.01,2013-01-31 05:58:00,
2013-01-31 01:00:00,39.3,37.7,29.22,SSW,199,13.0,35.0,94,0.01,,SKC,0.01,VWS V14.01,2013-01-31 06:00:00,
2013-01-31 01:04:00,39.3,37.5,29.22,SW,217,25.0,35.0,93,0.01,,SKC,0.01,VWS V14.01,2013-01-31 06:04:00,
2013-01-31 01:10:00,39.2,36.5,29.22,WSW,246,13.0,35.0,90,0.01,,SKC,0.01,VWS V14.01,2013-01-31 06:10:00,
2013-01-31 01:15:00,39.1,37.0,29.23,South,189,15.0,35.0,92,0.01,,SKC,0.01,VWS V14.01,2013-01-31 06:15:00,
2013-01-31 01:22:00,39.1,36.7,29.23,SSE,164,26.0,37.0,91,0.01,,SKC,0.01,VWS V14.01,2013-01-31 06:22:00,
2013-01-31 01:28:00,39.1,36.7,29.23,SW,233,9.0,37.0,91,0.01,,SKC,0.01,VWS V14.01,2013-01-31 06:28:00,
2013-01-31 01:30:00,39.1,36.7,29.23,West,259,13.0,37.0,91,0.01,,SKC,0.01,VWS V14.01,2013-01-31 06:30:00,
2013-01-31 01:34:00,39.1,36.7,29.23,South,176,27.0,31.0,91,0.01,,SKC,0.01,VWS V14.01,2013-01-31 06:34:00,
2013-01-31 01:40:00,39.1,36.4,29.23,SW,229,6.0,31.0,90,0.01,,SKC,0.01,VWS V14.01,2013-01-31 06:40:00,
2013-01-31 01:45:00,38.9,36.5,29.22,SSW,198,12.0,31.0,91,0.01,,SKC,0.01,VWS V14.01,2013-01-31 06:45:00,
2013-01-31 01:52:00,38.9,36.5,29.22,SSW,196,14.0,33.0,91,0.00,,SKC,0.01,VWS V14.01,2013-01-31 06:52:00,
2013-01-31 01:58:00,38.5,36.1,29.22,SSW,193,2.0,35.0,91,0.01,,SKC,0.02,VWS V14.01,2013-01-31 06:58:00,
2013-01-31 02:00:00,38.0,35.6,29.25,East,91,1.0,35.0,91,0.01,,SKC,0.02,VWS V14.01,2013-01-31 07:00:00,
2013-01-31 02:05:00,36.6,34.2,29.25,South,176,17.0,31.0,91,0.02,,SKC,0.03,VWS V14.01,2013-01-31 07:05:00,
2013-01-31 02:11:00,35.2,32.8,29.25,South,187,12.0,36.0,91,0.03,,SKC,0.04,VWS V14.01,2013-01-31 07:11:00,
2013-01-31 02:15:00,34.7,32.1,29.26,SSE,168,20.0,36.0,90,0.03,,SKC,0.04,VWS V14.01,2013-01-31 07:15:00,
2013-01-31 02:17:00,34.7,31.8,29.26,SSE,154,15.0,24.0,89,0.03,,SKC,0.04,VWS V14.01,2013-01-31 07:17:00,
2013-01-31 02:23:00,34.6,31.1,29.26,SSW,197,20.0,31.0,87,0.03,,SKC,0.04,VWS V14.01,2013-01-31 07:23:00,
2013-01-31 02:29:00,34.6,31.1,29.26,SSW,212,14.0,37.0,87,0.03,,SKC,0.04,VWS V14.01,2013-01-31 07:29:00,
2013-01-31 02:30:00,34.4,30.9,29.27,SSE,167,14.0,37.0,87,0.03,,SKC,0.04,VWS V14.01,2013-01-31 07:30:00,
2013-01-31 02:35:00,34.4,30.9,29.27,South,183,15.0,37.0,87,0.04,,SKC,0.05,VWS V14.01,2013-01-31 07:35:00,
2013-01-31 02:41:00,34.4,30.9,29.27,South,186,25.0,40.0,87,0.04,,SKC,0.05,VWS V14.01,2013-01-31 07:41:00,
2013-01-31 02:45:00,34.4,30.9,29.26,SSW,193,20.0,40.0,87,0.04,,SKC,0.05,VWS V14.01,2013-01-31 07:45:00,
2013-01-31 02:47:00,34.3,30.8,29.26,South,181,12.0,31.0,87,0.04,,SKC,0.05,VWS V14.01,2013-01-31 07:47:00,
2013-01-31 02:53:00,34.3,30.8,29.26,South,187,12.0,31.0,87,0.04,,SKC,0.05,VWS V14.01,2013-01-31 07:53:00,
2013-01-31 02:59:00,34.1,30.6,29.26,SW,229,17.0,33.0,87,0.04,,SKC,0.05,VWS V14.01,2013-01-31 07:59:00,
2013-01-31 03:00:00,34.1,30.6,29.26,South,188,29.0,33.0,87,0.04,,SKC,0.05,VWS V14.01,2013-01-31 08:00:00,
2013-01-31 03:05:00,34.1,30.6,29.26,SSW,210,10.0,35.0,87,0.03,,SKC,0.05,VWS V14.01,2013-01-31 08:05:00,
2013-01-31 03:11:00,34.1,30.6,29.26,SW,227,8.0,35.0,87,0.03,,SKC,0.05,VWS V14.01,2013-01-31 08:11:00,
2013-01-31 03:15:00,34.0,30.5,29.28,South,191,11.0,35.0,87,0.03,,SKC,0.05,VWS V14.01,2013-01-31 08:15:00,
2013-01-31 03:17:00,34.0,30.5,29.28,SSW,201,12.0,24.0,87,0.01,,SKC,0.05,VWS V14.01,2013-01-31 08:17:00,
2013-01-31 03:23:00,33.8,30.6,29.28,SSW,212,5.0,24.0,88,0.01,,SKC,0.05,VWS V14.01,2013-01-31 08:23:00,
2013-01-31 03:29:00,33.7,30.8,29.28,SSW,200,14.0,24.0,89,0.01,,SKC,0.05,VWS V14.01,2013-01-31 08:29:00,
2013-01-31 03:30:00,33.5,30.6,29.28,South,189,10.0,24.0,89,0.01,,SKC,0.05,VWS V14.01,2013-01-31 08:30:00,
2013-01-31 03:35:00,33.4,30.8,29.28,WSW,242,10.0,20.0,90,0.01,,SKC,0.05,VWS V14.01,2013-01-31 08:35:00,
2013-01-31 03:41:00,33.1,30.8,29.28,South,179,7.0,20.0,91,0.01,,SKC,0.05,VWS V14.01,2013-01-31 08:41:00,
2013-01-31 03:45:00,32.7,30.4,29.29,WSW,237,4.0,29.0,91,0.01,,SKC,0.05,VWS V14.01,2013-01-31 08:45:00,
2013-01-31 03:47:00,32.5,30.4,29.29,WSW,239,10.0,11.0,92,0.00,,SKC,0.05,VWS V14.01,2013-01-31 08:47:00,
2013-01-31 03:53:00,31.9,29.8,29.29,SSW,205,6.0,24.0,92,0.00,,SKC,0.05,VWS V14.01,2013-01-31 08:53:00,
2013-01-31 03:59:00,31.6,29.5,29.29,SW,226,3.0,31.0,92,0.00,,SKC,0.05,VWS V14.01,2013-01-31 08:59:00,
2013-01-31 04:00:00,31.5,29.5,29.31,SW,222,6.0,31.0,92,0.00,,SKC,0.05,VWS V14.01,2013-01-31 09:00:00,
2013-01-31 04:05:00,31.2,29.1,29.31,SSW,195,12.0,33.0,92,0.00,,SKC,0.05,VWS V14.01,2013-01-31 09:05:00,
2013-01-31 04:11:00,30.9,28.9,29.31,South,178,5.0,33.0,92,0.00,,SKC,0.05,VWS V14.01,2013-01-31 09:11:00,
2013-01-31 04:15:00,30.7,28.7,29.33,SSE,147,3.0,33.0,92,0.00,,SKC,0.05,VWS V14.01,2013-01-31 09:15:00,
2013-01-31 04:17:00,30.6,28.6,29.33,SW,215,3.0,14.0,92,0.00,,SKC,0.05,VWS V14.01,2013-01-31 09:17:00,
2013-01-31 04:23:00,30.1,28.1,29.33,SSW,199,10.0,27.0,92,0.00,,SKC,0.05,VWS V14.01,2013-01-31 09:23:00,
2013-01-31 04:29:00,29.7,27.7,29.33,SSW,203,12.0,30.0,92,0.00,,SKC,0.05,VWS V14.01,2013-01-31 09:29:00,
2013-01-31 04:30:00,29.7,27.7,29.36,SW,231,11.0,30.0,92,0.00,,SKC,0.05,VWS V14.01,2013-01-31 09:30:00,
2013-01-31 04:35:00,29.5,27.5,29.36,SW,221,4.0,28.0,92,0.00,,SKC,0.05,VWS V14.01,2013-01-31 09:35:00,
2013-01-31 04:41:00,29.3,27.3,29.36,South,180,13.0,28.0,92,0.00,,SKC,0.05,VWS V14.01,2013-01-31 09:41:00,
2013-01-31 04:45:00,29.3,27.0,29.38,SSE,159,7.0,28.0,91,0.00,,SKC,0.05,VWS V14.01,2013-01-31 09:45:00,
2013-01-31 04:47:00,29.1,26.8,29.38,SE,146,13.0,22.0,91,0.00,,SKC,0.05,VWS V14.01,2013-01-31 09:47:00,
2013-01-31 04:53:00,29.1,26.3,29.38,SSE,167,16.0,27.0,89,0.00,,SKC,0.05,VWS V14.01,2013-01-31 09:53:00,
2013-01-31 04:59:00,28.8,25.7,29.38,SSE,149,20.0,40.0,88,0.00,,SKC,0.05,VWS V14.01,2013-01-31 09:59:00,
2013-01-31 05:00:00,28.7,25.6,29.38,South,169,17.0,40.0,88,0.00,,SKC,0.05,VWS V14.01,2013-01-31 10:00:00,
2013-01-31 05:05:00,28.4,25.0,29.38,South,191,22.0,34.0,87,0.00,,SKC,0.05,VWS V14.01,2013-01-31 10:05:00,
2013-01-31 05:11:00,28.2,23.7,29.38,South,171,19.0,39.0,83,0.00,,SKC,0.05,VWS V14.01,2013-01-31 10:11:00,
2013-01-31 05:15:00,28.2,23.7,29.41,SSW,193,2.0,39.0,83,0.00,,SKC,0.05,VWS V14.01,2013-01-31 10:15:00,
2013-01-31 05:17:00,28.1,23.0,29.41,SSW,197,13.0,26.0,81,0.00,,SKC,0.05,VWS V14.01,2013-01-31 10:17:00,
2013-01-31 05:23:00,27.9,22.5,29.41,SW,218,3.0,30.0,80,0.00,,SKC,0.05,VWS V14.01,2013-01-31 10:23:00,
2013-01-31 05:29:00,27.9,22.2,29.41,East,91,5.0,41.0,79,0.00,,SKC,0.05,VWS V14.01,2013-01-31 10:29:00,
2013-01-31 05:30:00,27.9,22.2,29.41,South,182,9.0,41.0,79,0.00,,SKC,0.05,VWS V14.01,2013-01-31 10:30:00,
2013-01-31 05:35:00,27.8,21.9,29.41,South,191,10.0,23.0,78,0.00,,SKC,0.05,VWS V14.01,2013-01-31 10:35:00,
2013-01-31 05:41:00,27.6,21.6,29.41,ENE,68,16.0,29.0,78,0.00,,SKC,0.05,VWS V14.01,2013-01-31 10:41:00,
2013-01-31 05:45:00,27.6,21.4,29.43,SSE,158,9.0,29.0,77,0.00,,SKC,0.05,VWS V14.01,2013-01-31 10:45:00,
2013-01-31 05:47:00,27.6,21.4,29.43,WNW,288,6.0,21.0,77,0.00,,SKC,0.05,VWS V14.01,2013-01-31 10:47:00,
2013-01-31 05:54:00,27.5,21.9,29.43,SE,142,3.0,21.0,79,0.00,,SKC,0.05,VWS V14.01,2013-01-31 10:54:00,
2013-01-31 06:00:00,27.2,21.6,29.43,SSE,167,12.0,28.0,79,0.00,,SKC,0.05,VWS V14.01,2013-01-31 11:00:00,
2013-01-31 06:06:00,26.9,20.7,29.43,SSW,213,9.0,23.0,77,0.00,,SKC,0.05,VWS V14.01,2013-01-31 11:06:00,
2013-01-31 06:12:00,26.3,21.3,29.43,SSW,204,12.0,35.0,81,0.00,,SKC,0.05,VWS V14.01,2013-01-31 11:12:00,
2013-01-31 06:15:00,26.0,21.3,29.43,SSW,198,6.0,35.0,82,0.00,,SKC,0.05,VWS V14.01,2013-01-31 11:15:00,
2013-01-31 06:18:00,25.8,21.4,29.43,SE,146,18.0,18.0,83,0.00,,SKC,0.05,VWS V14.01,2013-01-31 11:18:00,
2013-01-31 06:24:00,25.7,21.8,29.43,South,190,11.0,28.0,85,0.00,,SKC,0.05,VWS V14.01,2013-01-31 11:24:00,
2013-01-31 06:30:00,25.6,21.5,29.45,SSW,206,6.0,28.0,84,0.00,,SKC,0.05,VWS V14.01,2013-01-31 11:30:00,
2013-01-31 06:36:00,25.6,21.5,29.45,SW,231,9.0,27.0,84,0.00,,SKC,0.05,VWS V14.01,2013-01-31 11:36:00,
2013-01-31 06:42:00,25.3,21.1,29.45,SW,216,5.0,27.0,84,0.00,,SKC,0.05,VWS V14.01,2013-01-31 11:42:00,
2013-01-31 06:45:00,25.3,20.9,29.45,SSW,206,6.0,27.0,83,0.00,,SKC,0.05,VWS V14.01,2013-01-31 11:45:00,
2013-01-31 06:48:00,25.1,20.4,29.45,SSW,202,5.0,22.0,82,0.00,,SKC,0.05,VWS V14.01,2013-01-31 11:48:00,
2013-01-31 06:54:00,25.1,19.8,29.45,SSW,193,10.0,31.0,80,0.00,,SKC,0.05,VWS V14.01,2013-01-31 11:54:00,
2013-01-31 07:00:00,25.0,19.7,29.47,ESE,111,6.0,31.0,80,0.00,,SKC,0.05,VWS V14.01,2013-01-31 12:00:00,
2013-01-31 07:06:00,24.8,19.2,29.47,South,191,7.0,40.0,79,0.00,,SKC,0.05,VWS V14.01,2013-01-31 12:06:00,
2013-01-31 07:12:00,24.7,19.7,29.47,SW,230,5.0,40.0,81,0.00,,SKC,0.05,VWS V14.01,2013-01-31 12:12:00,
2013-01-31 07:15:00,24.5,18.9,29.48,SW,226,10.0,40.0,79,0.00,,SKC,0.05,VWS V14.01,2013-01-31 12:15:00,
2013-01-31 07:18:00,24.4,18.8,29.48,SSE,150,8.0,22.0,79,0.00,,SKC,0.05,VWS V14.01,2013-01-31 12:18:00,
2013-01-31 07:24:00,24.4,18.8,29.48,South,176,9.0,23.0,79,0.00,,SKC,0.05,VWS V14.01,2013-01-31 12:24:00,
2013-01-31 07:30:00,24.4,19.1,29.50,SSE,168,14.0,24.0,80,0.00,,SKC,0.05,VWS V14.01,2013-01-31 12:30:00,
2013-01-31 07:36:00,24.2,19.2,29.50,SW,227,3.0,22.0,81,0.00,,SKC,0.05,VWS V14.01,2013-01-31 12:36:00,
2013-01-31 07:42:00,24.1,18.2,29.50,SE,136,24.0,42.0,78,0.00,,SKC,0.05,VWS V14.01,2013-01-31 12:42:00,
2013-01-31 07:45:00,24.1,18.2,29.50,SW,236,5.0,42.0,78,0.00,,SKC,0.05,VWS V14.01,2013-01-31 12:45:00,
2013-01-31 07:48:00,24.1,18.0,29.50,South,172,7.0,20.0,77,0.00,,SKC,0.05,VWS V14.01,2013-01-31 12:48:00,
2013-01-31 07:54:00,23.9,17.1,29.50,SSE,147,13.0,27.0,75,0.00,,SKC,0.05,VWS V14.01,2013-01-31 12:54:00,
2013-01-31 08:00:00,24.1,17.3,29.50,WSW,252,7.0,29.0,75,0.00,,SKC,0.05,VWS V14.01,2013-01-31 13:00:00,
2013-01-31 08:06:00,23.9,17.1,29.50,SW,233,7.0,26.0,75,0.00,,SKC,0.05,VWS V14.01,2013-01-31 13:06:00,
2013-01-31 08:12:00,24.1,17.6,29.50,SSW,201,9.0,26.0,76,0.00,,SKC,0.05,VWS V14.01,2013-01-31 13:12:00,
2013-01-31 08:15:00,24.1,18.0,29.52,SSE,150,12.0,26.0,77,0.00,,SKC,0.05,VWS V14.01,2013-01-31 13:15:00,
2013-01-31 08:30:00,23.9,18.4,29.54,South,180,10.0,37.0,79,0.00,,SKC,0.05,VWS V14.01,2013-01-31 13:30:00,
2013-01-31 08:45:00,24.1,18.2,29.56,SSW,202,11.0,35.0,78,0.00,,SKC,0.05,VWS V14.01,2013-01-31 13:45:00,
2013-01-31 09:00:00,24.2,15.5,29.56,South,180,16.0,40.0,69,0.00,,SKC,0.05,VWS V14.01,2013-01-31 14:00:00,
2013-01-31 09:15:00,24.2,13.4,29.60,South,180,16.0,43.0,63,0.00,,SKC,0.05,VWS V14.01,2013-01-31 14:15:00,
2013-01-31 09:30:00,24.7,13.6,29.58,SSW,202,13.0,32.0,62,0.00,,SKC,0.05,VWS V14.01,2013-01-31 14:30:00,
2013-01-31 09:45:00,24.8,14.7,29.59,South,180,12.0,44.0,65,0.00,,SKC,0.05,VWS V14.01,2013-01-31 14:45:00,
2013-01-31 10:00:00,24.5,16.1,29.61,South,180,11.0,37.0,70,0.00,,SKC,0.05,VWS V14.01,2013-01-31 15:00:00,
2013-01-31 10:15:00,23.9,17.8,29.64,SSW,202,14.0,33.0,77,0.00,,SKC,0.05,VWS V14.01,2013-01-31 15:15:00,
2013-01-31 10:30:00,24.4,16.0,29.65,SSW,202,17.0,36.0,70,0.00,,SKC,0.05,VWS V14.01,2013-01-31 15:30:00,
2013-01-31 10:45:00,24.5,14.1,29.64,South,180,17.0,40.0,64,0.00,,SKC,0.05,VWS V14.01,2013-01-31 15:45:00,
2013-01-31 11:00:00,24.7,13.2,29.65,SSW,202,16.0,46.0,61,0.00,,SKC,0.05,VWS V14.01,2013-01-31 16:00:00,
2013-01-31 11:15:00,25.1,11.6,29.64,SSW,202,16.0,44.0,56,0.00,,SKC,0.05,VWS V14.01,2013-01-31 16:15:00,
2013-01-31 11:30:00,25.1,12.4,29.66,South,180,18.0,44.0,58,0.00,,SKC,0.05,VWS V14.01,2013-01-31 16:30:00,
2013-01-31 11:45:00,25.4,13.1,29.64,South,180,16.0,46.0,59,0.00,,SKC,0.05,VWS V14.01,2013-01-31 16:45:00,
2013-01-31 12:00:00,26.1,13.8,29.65,SSW,202,14.0,36.0,59,0.00,,SKC,0.05,VWS V14.01,2013-01-31 17:00:00,
2013-01-31 12:15:00,26.0,12.5,29.66,SSW,202,11.0,33.0,56,0.00,,SKC,0.05,VWS V14.01,2013-01-31 17:15:00,
2013-01-31 12:30:00,26.0,12.1,29.66,SSW,202,13.0,35.0,55,0.00,,SKC,0.05,VWS V14.01,2013-01-31 17:30:00,
2013-01-31 12:45:00,26.0,13.3,29.66,SSW,202,9.0,25.0,58,0.00,,SKC,0.05,VWS V14.01,2013-01-31 17:45:00,
2013-01-31 13:00:00,26.0,14.0,29.68,South,180,10.0,31.0,60,0.00,,SKC,0.05,VWS V14.01,2013-01-31 18:00:00,
2013-01-31 13:15:00,25.3,13.4,29.68,WSW,248,7.0,33.0,60,0.00,,SKC,0.05,VWS V14.01,2013-01-31 18:15:00,
2013-01-31 13:30:00,25.1,13.6,29.70,SSW,202,10.0,39.0,61,0.00,,SKC,0.05,VWS V14.01,2013-01-31 18:30:00,
2013-01-31 13:45:00,25.1,12.8,29.69,SSW,202,13.0,38.0,59,0.00,,SKC,0.05,VWS V14.01,2013-01-31 18:45:00,
2013-01-31 14:00:00,24.8,13.3,29.70,SSW,202,11.0,27.0,61,0.00,,SKC,0.05,VWS V14.01,2013-01-31 19:00:00,
2013-01-31 14:15:00,24.5,13.7,29.72,SSW,202,7.0,26.0,63,0.00,,SKC,0.05,VWS V14.01,2013-01-31 19:15:00,
2013-01-31 14:30:00,24.7,14.3,29.72,South,180,13.0,54.0,64,0.00,,SKC,0.05,VWS V14.01,2013-01-31 19:30:00,
2013-01-31 14:45:00,25.1,12.4,29.72,South,180,14.0,40.0,58,0.00,,SKC,0.05,VWS V14.01,2013-01-31 19:45:00,
2013-01-31 15:00:00,25.1,13.9,29.73,SW,225,7.0,30.0,62,0.00,,SKC,0.05,VWS V14.01,2013-01-31 20:00:00,
2013-01-31 15:15:00,24.2,12.7,29.74,SSW,202,10.0,27.0,61,0.00,,SKC,0.05,VWS V14.01,2013-01-31 20:15:00,
2013-01-31 15:30:00,24.2,12.7,29.75,SSW,202,6.0,22.0,61,0.00,,SKC,0.05,VWS V14.01,2013-01-31 20:30:00,
2013-01-31 15:45:00,24.8,13.6,29.76,SSW,202,9.0,33.0,62,0.00,,SKC,0.05,VWS V14.01,2013-01-31 20:45:00,
2013-01-31 16:00:00,25.0,13.1,29.76,South,180,9.0,26.0,60,0.00,,SKC,0.05,VWS V14.01,2013-01-31 21:00:00,
2013-01-31 16:15:00,24.7,12.4,29.76,South,180,12.0,36.0,59,0.00,,SKC,0.05,VWS V14.01,2013-01-31 21:15:00,
2013-01-31 16:30:00,24.5,13.0,29.78,SSW,202,14.0,40.0,61,0.00,,SKC,0.05,VWS V14.01,2013-01-31 21:30:00,
2013-01-31 16:45:00,24.5,13.0,29.78,SSW,202,18.0,51.0,61,0.00,,SKC,0.05,VWS V14.01,2013-01-31 21:45:00,
2013-01-31 17:00:00,24.4,14.3,29.79,South,180,14.0,40.0,65,0.00,,SKC,0.05,VWS V14.01,2013-01-31 22:00:00,
2013-01-31 17:15:00,24.1,14.4,29.80,SSW,202,7.0,27.0,66,0.00,,SKC,0.05,VWS V14.01,2013-01-31 22:15:00,
2013-01-31 17:30:00,23.9,13.9,29.80,SSW,202,10.0,29.0,65,0.00,,SKC,0.05,VWS V14.01,2013-01-31 22:30:00,
2013-01-31 17:45:00,23.6,13.9,29.80,SSW,202,9.0,28.0,66,0.00,,SKC,0.05,VWS V14.01,2013-01-31 22:45:00,
2013-01-31 18:00:00,23.6,13.9,29.81,SSW,202,6.0,23.0,66,0.00,,SKC,0.05,VWS V14.01,2013-01-31 23:00:00,
2013-01-31 18:15:00,23.6,13.2,29.81,SSW,202,7.0,24.0,64,0.00,,SKC,0.05,VWS V14.01,2013-01-31 23:15:00,
2013-01-31 18:30:00,23.6,12.5,29.84,South,180,9.0,30.0,62,0.00,,SKC,0.05,VWS V14.01,2013-01-31 23:30:00,
2013-01-31 18:45:00,23.8,12.3,29.82,South,180,9.0,32.0,61,0.00,,SKC,0.05,VWS V14.01,2013-01-31 23:45:00,
2013-01-31 19:00:00,23.8,11.6,29.82,SSW,202,11.0,36.0,59,0.00,,SKC,0.05,VWS V14.01,2013-02-01 00:00:00,
2013-01-31 19:15:00,23.8,12.0,29.82,SSW,202,9.0,25.0,60,0.00,,SKC,0.05,VWS V14.01,2013-02-01 00:15:00,
2013-01-31 19:30:00,23.9,12.4,29.82,South,180,9.0,36.0,61,0.00,,SKC,0.05,VWS V14.01,2013-02-01 00:30:00,
2013-01-31 19:45:00,23.8,13.1,29.83,South,180,11.0,32.0,63,0.00,,SKC,0.05,VWS V14.01,2013-02-01 00:45:00,
2013-01-31 20:00:00,24.1,13.3,29.82,SSW,202,10.0,28.0,63,0.00,,SKC,0.05,VWS V14.01,2013-02-01 01:00:00,
2013-01-31 20:15:00,24.2,13.4,29.83,South,180,10.0,33.0,63,0.00,,SKC,0.05,VWS V14.01,2013-02-01 01:15:00,
2013-01-31 20:30:00,24.5,13.4,29.82,SSW,202,13.0,34.0,62,0.00,,SKC,0.05,VWS V14.01,2013-02-01 01:30:00,
2013-01-31 20:45:00,24.7,13.9,29.82,South,180,13.0,39.0,63,0.00,,SKC,0.05,VWS V14.01,2013-02-01 01:45:00,
2013-01-31 21:00:00,24.8,13.6,29.82,SSW,202,13.0,43.0,62,0.00,,SKC,0.05,VWS V14.01,2013-02-01 02:00:00,
2013-01-31 21:15:00,25.0,13.8,29.82,SSW,202,12.0,30.0,62,0.00,,SKC,0.05,VWS V14.01,2013-02-01 02:15:00,
2013-01-31 21:30:00,25.4,13.8,29.83,SSW,202,14.0,39.0,61,0.00,,SKC,0.05,VWS V14.01,2013-02-01 02:30:00,
2013-01-31 21:45:00,25.4,13.8,29.83,SSW,202,12.0,34.0,61,0.00,,SKC,0.05,VWS V14.01,2013-02-01 02:45:00,
2013-01-31 22:00:00,25.6,14.0,29.83,SSW,202,10.0,26.0,61,0.00,,SKC,0.05,VWS V14.01,2013-02-01 03:00:00,
2013-01-31 22:15:00,25.6,14.0,29.83,SSW,202,13.0,28.0,61,0.00,,SKC,0.05,VWS V14.01,2013-02-01 03:15:00,
2013-01-31 22:30:00,25.6,14.4,29.83,SSW,202,12.0,30.0,62,0.00,,SKC,0.05,VWS V14.01,2013-02-01 03:30:00,
2013-01-31 22:45:00,25.7,15.2,29.82,SSW,202,13.0,28.0,64,0.00,,SKC,0.05,VWS V14.01,2013-02-01 03:45:00,
2013-01-31 23:00:00,25.8,15.3,29.81,SSW,202,13.0,33.0,64,0.00,,SKC,0.05,VWS V14.01,2013-02-01 04:00:00,
2013-01-31 23:15:00,25.8,15.7,29.80,SSW,202,9.0,22.0,65,0.00,,SKC,0.05,VWS V14.01,2013-02-01 04:15:00,
2013-01-31 23:30:00,25.7,15.9,29.79,SSW,202,9.0,25.0,66,0.00,,SKC,0.05,VWS V14.01,2013-02-01 04:30:00,
2013-01-31 23:45:00,26.0,16.9,29.78,SSW,202,11.0,27.0,68,0.00,,SKC,0.05,VWS V14.01,2013-02-01 04:45:00,